createdAt,value
2019-05-06T00:03:06.190Z,3.63
2019-05-06T00:08:08.263Z,2.87
2019-05-06T00:13:10.313Z,3.47
2019-05-06T00:18:13.894Z,3.50
2019-05-06T00:23:21.768Z,3.60
2019-05-06T00:28:29.375Z,3.30
2019-05-06T00:33:31.409Z,3.27
2019-05-06T00:38:34.168Z,3.87
2019-05-06T00:43:36.356Z,3.43
2019-05-06T00:48:38.547Z,3.30
2019-05-06T00:53:44.185Z,3.30
2019-05-06T00:58:46.288Z,3.57
2019-05-06T01:03:48.383Z,3.50
2019-05-06T01:08:50.443Z,3.57
2019-05-06T01:14:04.204Z,3.97
2019-05-06T01:19:06.267Z,3.70
2019-05-06T01:24:08.297Z,4.00
2019-05-06T01:29:10.375Z,3.53
2019-05-06T01:34:13.771Z,4.00
2019-05-06T01:39:34.147Z,3.80
2019-05-06T01:44:36.314Z,3.37
2019-05-06T01:49:38.393Z,4.07
2019-05-06T01:54:40.448Z,3.40
2019-05-06T01:59:44.370Z,4.03
2019-05-06T02:04:46.527Z,4.20
2019-05-06T02:09:48.555Z,3.67
2019-05-06T02:14:50.621Z,3.90
2019-05-06T02:19:54.654Z,4.37
2019-05-06T02:25:05.040Z,4.10
2019-05-06T02:30:30.245Z,3.73
2019-05-06T02:35:36.983Z,4.40
2019-05-06T02:40:39.019Z,4.37
2019-05-06T02:45:43.307Z,4.00
2019-05-06T02:51:03.410Z,3.93
2019-05-06T02:56:04.923Z,4.17
2019-05-06T03:01:07.026Z,3.80
2019-05-06T03:06:09.087Z,3.97
2019-05-06T03:11:13.559Z,4.70
2019-05-06T03:16:15.118Z,4.63
2019-05-06T03:21:29.874Z,3.73
2019-05-06T03:26:33.181Z,4.77
2019-05-06T03:31:36.663Z,3.90
2019-05-06T03:36:41.004Z,4.03
2019-05-06T03:41:43.686Z,4.27
2019-05-06T03:47:05.774Z,4.77
2019-05-06T03:52:08.039Z,4.40
2019-05-06T03:57:13.684Z,4.37
2019-05-06T04:02:15.512Z,4.67
2019-05-06T04:07:19.239Z,5.70
2019-05-06T04:12:23.394Z,4.90
2019-05-06T04:17:43.874Z,4.50
2019-05-06T04:22:53.189Z,5.33
2019-05-06T04:27:57.933Z,5.53
2019-05-06T04:33:03.117Z,5.37
2019-05-06T04:38:04.235Z,4.67
2019-05-06T04:43:06.270Z,4.60
2019-05-06T04:48:08.510Z,5.10
2019-05-06T04:53:13.461Z,5.10
2019-05-06T04:58:14.932Z,5.73
2019-05-06T05:03:17.106Z,5.73
2019-05-06T05:08:22.345Z,5.53
2019-05-06T05:13:49.750Z,4.93
2019-05-06T05:18:56.081Z,4.97
2019-05-06T05:23:58.266Z,4.47
2019-05-06T05:29:02.573Z,4.80
2019-05-06T05:34:04.551Z,4.73
2019-05-06T05:39:07.363Z,4.67
2019-05-06T05:44:14.589Z,4.07
2019-05-06T05:49:28.797Z,4.50
2019-05-06T05:54:32.987Z,4.00
2019-05-06T05:59:34.813Z,4.28
2019-05-06T06:04:36.892Z,3.62
2019-05-06T06:09:47.700Z,3.15
2019-05-06T06:15:12.698Z,3.62
2019-05-06T06:20:33.851Z,4.22
2019-05-06T06:25:35.959Z,3.02
2019-05-06T06:30:47.669Z,3.20
2019-05-06T06:35:56.816Z,3.40
2019-05-06T06:40:58.947Z,3.10
2019-05-06T06:46:02.465Z,3.83
2019-05-06T06:51:04.743Z,3.55
2019-05-06T06:56:29.182Z,4.05
2019-05-06T07:01:36.880Z,3.70
2019-05-06T07:06:43.103Z,4.00
2019-05-06T07:11:45.175Z,3.85
2019-05-06T07:16:47.239Z,3.42
2019-05-06T07:21:53.442Z,3.22
2019-05-06T07:27:15.115Z,3.62
2019-05-06T07:32:17.170Z,3.67
2019-05-06T07:37:19.357Z,3.97
2019-05-06T07:42:27.175Z,3.40
2019-05-06T07:47:37.561Z,3.30
2019-05-06T07:52:42.161Z,3.53
2019-05-06T07:57:56.937Z,3.57
2019-05-06T08:02:59.005Z,2.60
2019-05-06T08:08:03.439Z,3.17
2019-05-06T08:13:05.203Z,3.70
2019-05-06T08:18:07.277Z,3.07
2019-05-06T08:23:17.817Z,3.03
2019-05-06T08:28:22.389Z,3.07
2019-05-06T08:33:23.822Z,2.93
2019-05-06T08:38:25.899Z,2.80
2019-05-06T08:43:28.105Z,2.97
2019-05-06T08:48:32.391Z,3.03
2019-05-06T08:53:44.756Z,2.70
2019-05-06T08:58:47.567Z,2.47
2019-05-06T09:04:05.033Z,2.10
2019-05-06T09:08:56.959Z,2.50
2019-05-06T09:13:59.202Z,2.20
2019-05-06T09:19:04.447Z,2.60
2019-05-06T09:24:06.221Z,2.47
2019-05-06T09:29:14.899Z,2.47
2019-05-06T09:34:39.436Z,2.60
2019-05-06T09:39:44.708Z,2.50
2019-05-06T09:44:50.276Z,2.03
2019-05-06T09:49:52.865Z,2.00
2019-05-06T09:55:03.305Z,2.07
2019-05-06T10:00:06.831Z,1.70
2019-05-06T10:05:09.098Z,1.60
2019-05-06T10:10:11.421Z,2.17
2019-05-06T10:15:13.521Z,2.00
2019-05-06T10:20:15.808Z,1.90
2019-05-06T10:25:17.876Z,2.60
2019-05-06T10:30:19.903Z,2.90
2019-05-06T10:35:23.188Z,2.70
2019-05-06T10:40:32.931Z,1.90
2019-05-06T10:45:35.326Z,1.63
2019-05-06T10:50:43.009Z,1.30
2019-05-06T10:55:49.635Z,1.33
2019-05-06T11:01:12.572Z,1.20
2019-05-06T11:06:16.702Z,1.80
2019-05-06T11:11:31.594Z,1.77
2019-05-06T11:16:23.716Z,1.90
2019-05-06T11:21:26.218Z,2.80
2019-05-06T11:26:28.411Z,2.37
2019-05-06T11:31:43.362Z,1.73
2019-05-06T11:36:48.858Z,1.20
2019-05-06T11:42:06.241Z,1.93
2019-05-06T11:46:54.969Z,1.73
2019-05-06T11:51:57.032Z,1.67
2019-05-06T11:57:02.921Z,1.40
2019-05-06T12:02:06.045Z,1.70
2019-05-06T12:07:15.229Z,1.33
2019-05-06T12:12:12.846Z,1.97
2019-05-06T12:17:15.097Z,1.33
2019-05-06T12:22:17.120Z,1.30
2019-05-06T12:27:37.429Z,1.50
2019-05-06T12:32:45.898Z,1.70
2019-05-06T12:37:53.033Z,1.67
2019-05-06T12:43:14.626Z,1.93
2019-05-06T12:48:26.354Z,1.50
2019-05-06T12:53:28.440Z,1.87
2019-05-06T12:58:30.479Z,1.57
2019-05-06T13:03:34.844Z,1.40
2019-05-06T13:08:54.075Z,1.90
2019-05-06T13:13:55.570Z,1.90
2019-05-06T13:18:47.721Z,2.00
2019-05-06T13:23:52.557Z,1.60
2019-05-06T13:28:58.867Z,2.37
2019-05-06T13:34:05.628Z,1.60
2019-05-06T13:39:14.264Z,1.80
2019-05-06T13:44:13.512Z,2.10
2019-05-06T13:49:34.351Z,1.80
2019-05-06T13:54:36.825Z,2.20
2019-05-06T13:59:39.105Z,1.93
2019-05-06T14:04:44.279Z,1.80
2019-05-06T14:09:48.897Z,1.80
2019-05-06T14:14:53.783Z,2.23
2019-05-06T14:19:55.881Z,1.93
2019-05-06T14:25:33.127Z,2.20
2019-05-06T14:30:53.775Z,2.00
2019-05-06T14:35:56.043Z,1.70
2019-05-06T14:41:13.118Z,2.07
2019-05-06T14:46:14.866Z,2.10
2019-05-06T14:51:17.254Z,2.00
2019-05-06T14:56:25.606Z,1.80
2019-05-06T15:01:27.685Z,2.20
2019-05-06T15:06:29.930Z,2.07
2019-05-06T15:11:32.538Z,2.20
2019-05-06T15:16:35.071Z,2.37
2019-05-06T15:21:38.783Z,2.90
2019-05-06T15:26:52.033Z,2.60
2019-05-06T15:32:05.741Z,2.00
2019-05-06T15:37:16.943Z,2.03
2019-05-06T15:42:19.007Z,1.63
2019-05-06T15:47:22.724Z,2.37
2019-05-06T15:52:25.056Z,2.33
2019-05-06T15:57:27.210Z,2.20
2019-05-06T16:02:29.299Z,3.30
2019-05-06T16:07:34.999Z,3.37
2019-05-06T16:12:36.536Z,2.07
2019-05-06T16:17:38.673Z,2.40
2019-05-06T16:22:44.190Z,2.33
2019-05-06T16:27:51.039Z,2.40
2019-05-06T16:32:52.662Z,3.10
2019-05-06T16:37:55.022Z,2.33
2019-05-06T16:42:57.113Z,2.70
2019-05-06T16:47:59.156Z,2.30
2019-05-06T16:53:02.728Z,1.73
2019-05-06T16:58:10.119Z,2.60
2019-05-06T17:03:17.936Z,2.27
2019-05-06T17:08:23.349Z,2.60
2019-05-06T17:13:25.189Z,2.00
2019-05-06T17:18:28.507Z,1.97
2019-05-06T17:23:32.422Z,3.00
2019-05-06T17:28:52.560Z,2.77
2019-05-06T17:33:56.136Z,2.97
2019-05-06T17:38:58.232Z,1.97
2019-05-06T17:44:02.293Z,2.40
2019-05-06T17:49:17.372Z,2.27
2019-05-06T17:54:19.635Z,2.03
2019-05-06T17:59:21.677Z,3.10
2019-05-06T18:04:23.988Z,2.33
2019-05-06T18:09:26.056Z,2.57
2019-05-06T18:14:28.255Z,2.70
2019-05-06T18:19:30.377Z,2.83
2019-05-06T18:24:33.227Z,2.40
2019-05-06T18:29:36.011Z,2.37
2019-05-06T18:34:38.085Z,2.20
2019-05-06T18:39:42.333Z,2.27
2019-05-06T18:44:44.234Z,1.97
2019-05-06T18:49:46.264Z,2.80
2019-05-06T18:54:48.304Z,2.73
2019-05-06T18:59:50.395Z,2.90
2019-05-06T19:05:02.412Z,2.47
2019-05-06T19:10:09.248Z,2.87
2019-05-06T19:15:12.662Z,2.60
2019-05-06T19:20:15.234Z,2.70
2019-05-06T19:25:17.327Z,2.83
2019-05-06T19:30:19.692Z,2.83
2019-05-06T19:35:21.735Z,2.73
2019-05-06T19:40:23.900Z,3.37
2019-05-06T19:45:26.023Z,3.07
2019-05-06T19:50:28.113Z,3.40
2019-05-06T19:55:30.144Z,3.27
2019-05-06T20:00:32.629Z,3.50
2019-05-06T20:05:54.722Z,3.13
2019-05-06T20:11:09.752Z,3.17
2019-05-06T20:16:12.441Z,3.50
2019-05-06T20:21:14.671Z,4.20
2019-05-06T20:26:16.750Z,3.80
2019-05-06T20:31:22.488Z,3.20
2019-05-06T20:36:24.566Z,3.67
2019-05-06T20:41:26.567Z,3.30
2019-05-06T20:46:28.690Z,3.00
2019-05-06T20:51:32.848Z,2.90
2019-05-06T20:56:34.803Z,3.10
2019-05-06T21:01:36.974Z,3.70
2019-05-06T21:06:39.083Z,3.30
2019-05-06T21:11:42.149Z,3.37
2019-05-06T21:16:44.487Z,3.70
2019-05-06T21:21:46.543Z,3.87
2019-05-06T21:26:48.625Z,3.63
2019-05-06T21:31:52.966Z,3.70
2019-05-06T21:36:54.752Z,3.77
2019-05-06T21:41:56.862Z,3.40
2019-05-06T21:46:58.975Z,4.10
2019-05-06T21:52:02.128Z,3.20
2019-05-06T21:57:04.536Z,3.90
2019-05-06T22:02:07.949Z,3.83
2019-05-06T22:07:12.022Z,3.77
2019-05-06T22:12:13.984Z,4.20
2019-05-06T22:17:16.057Z,4.20
2019-05-06T22:22:20.535Z,3.70
2019-05-06T22:27:25.196Z,4.40
2019-05-06T22:32:27.256Z,4.70
2019-05-06T22:37:29.360Z,4.27
2019-05-06T22:42:32.288Z,4.43
2019-05-06T22:47:34.574Z,4.80
2019-05-06T22:52:36.624Z,4.63
2019-05-06T22:57:38.810Z,4.93
2019-05-06T23:02:52.728Z,4.93
2019-05-06T23:07:54.960Z,4.70
2019-05-06T23:12:57.006Z,4.43
2019-05-06T23:17:59.090Z,5.17
2019-05-06T23:23:02.419Z,4.87
2019-05-06T23:28:05.177Z,4.87
2019-05-06T23:33:07.376Z,4.90
2019-05-06T23:38:46.057Z,4.87
2019-05-06T23:44:24.660Z,5.33
2019-05-06T23:50:03.756Z,5.23
2019-05-06T23:55:44.157Z,5.20
